createdAt,value
2017-11-16T00:00:43.480Z,224.13
2017-11-16T00:03:10.996Z,248.73
2017-11-16T00:05:38.490Z,269.43
2017-11-16T00:08:06.742Z,328.17
2017-11-16T00:10:34.238Z,261.83
2017-11-16T00:13:03.550Z,262.97
2017-11-16T00:15:31.823Z,236.67
2017-11-16T00:18:00.092Z,226.43
2017-11-16T00:20:28.374Z,241.43
2017-11-16T00:22:56.956Z,249.23
2017-11-16T00:25:25.222Z,236.27
2017-11-16T00:27:53.502Z,202.10
2017-11-16T00:30:21.780Z,298.73
2017-11-16T00:32:50.058Z,263.20
2017-11-16T00:35:18.306Z,255.13
2017-11-16T00:37:45.777Z,243.87
2017-11-16T00:40:13.244Z,275.87
2017-11-16T00:42:41.513Z,197.17
2017-11-16T00:45:08.982Z,245.23
2017-11-16T00:47:37.251Z,216.13
2017-11-16T00:50:05.569Z,267.77
2017-11-16T00:52:33.053Z,233.30
2017-11-16T00:55:00.545Z,177.83
2017-11-16T00:57:28.812Z,191.87
2017-11-16T00:59:57.188Z,231.67
2017-11-16T01:02:25.447Z,184.00
2017-11-16T01:04:53.145Z,186.63
2017-11-16T01:07:21.388Z,199.10
2017-11-16T01:09:48.894Z,229.10
2017-11-16T01:12:16.423Z,192.80
2017-11-16T01:14:44.677Z,180.93
2017-11-16T01:17:12.166Z,294.77
2017-11-16T01:19:40.433Z,202.03
2017-11-16T01:22:08.665Z,227.00
2017-11-16T01:24:36.210Z,194.07
2017-11-16T01:27:03.723Z,201.10
2017-11-16T01:29:31.284Z,179.03
2017-11-16T01:31:59.524Z,203.03
2017-11-16T01:34:27.307Z,214.53
2017-11-16T01:36:54.901Z,195.17
2017-11-16T01:39:23.144Z,233.87
2017-11-16T01:41:50.623Z,215.37
2017-11-16T01:44:18.869Z,201.73
2017-11-16T01:46:46.384Z,235.57
2017-11-16T01:49:13.860Z,203.27
2017-11-16T01:51:41.351Z,180.13
2017-11-16T01:54:08.824Z,263.63
2017-11-16T01:56:37.099Z,176.57
2017-11-16T01:59:05.383Z,144.10
2017-11-16T02:01:33.639Z,137.90
2017-11-16T02:04:02.494Z,161.43
2017-11-16T02:06:29.982Z,167.17
2017-11-16T02:08:57.448Z,144.17
2017-11-16T02:11:25.970Z,125.47
2017-11-16T02:13:53.450Z,139.53
2017-11-16T02:16:20.936Z,150.03
2017-11-16T02:18:49.204Z,169.87
2017-11-16T02:21:16.784Z,136.93
2017-11-16T02:23:46.446Z,143.27
2017-11-16T02:26:13.945Z,178.10
2017-11-16T02:28:42.222Z,186.40
2017-11-16T02:31:10.464Z,180.43
2017-11-16T02:33:37.960Z,182.23
2017-11-16T02:36:06.214Z,227.30
2017-11-16T02:38:33.784Z,231.37
2017-11-16T02:41:02.057Z,198.27
2017-11-16T02:43:29.536Z,188.33
2017-11-16T02:45:57.773Z,176.87
2017-11-16T02:48:25.256Z,162.60
2017-11-16T02:50:53.516Z,208.10
2017-11-16T02:53:21.013Z,199.50
2017-11-16T02:55:48.554Z,182.07
2017-11-16T02:58:17.712Z,197.43
2017-11-16T03:00:45.538Z,178.17
2017-11-16T03:03:13.024Z,153.50
2017-11-16T03:05:40.516Z,216.10
2017-11-16T03:08:08.803Z,200.27
2017-11-16T03:10:37.580Z,192.93
2017-11-16T03:13:05.896Z,173.73
2017-11-16T03:15:33.367Z,195.93
2017-11-16T03:18:00.839Z,151.53
2017-11-16T03:20:28.312Z,218.80
2017-11-16T03:22:55.914Z,270.40
2017-11-16T03:25:23.458Z,283.03
2017-11-16T03:27:51.717Z,254.80
2017-11-16T03:30:19.986Z,217.03
2017-11-16T03:32:47.492Z,222.67
2017-11-16T03:35:15.138Z,208.00
2017-11-16T03:37:42.645Z,193.47
2017-11-16T03:40:10.127Z,165.20
2017-11-16T03:42:37.588Z,241.10
2017-11-16T03:45:06.349Z,206.37
2017-11-16T03:47:33.924Z,192.27
2017-11-16T03:50:01.478Z,208.83
2017-11-16T03:52:28.947Z,204.53
2017-11-16T03:54:56.429Z,191.03
2017-11-16T03:57:24.781Z,182.77
2017-11-16T03:59:52.250Z,218.70
2017-11-16T04:02:20.520Z,196.83
2017-11-16T04:04:48.781Z,267.70
2017-11-16T04:07:16.249Z,197.03
2017-11-16T04:09:44.497Z,222.73
2017-11-16T04:12:11.983Z,255.73
2017-11-16T04:14:40.241Z,208.10
2017-11-16T04:17:07.824Z,212.73
2017-11-16T04:19:36.089Z,235.50
2017-11-16T04:22:04.358Z,292.03
2017-11-16T04:24:31.888Z,250.67
2017-11-16T04:26:59.386Z,313.93
2017-11-16T04:29:28.284Z,300.93
2017-11-16T04:31:56.821Z,256.70
2017-11-16T04:34:24.329Z,294.93
2017-11-16T04:36:52.560Z,297.43
2017-11-16T04:39:20.068Z,253.77
2017-11-16T04:41:47.538Z,228.57
2017-11-16T04:44:15.017Z,303.30
2017-11-16T04:46:42.504Z,275.70
2017-11-16T04:49:10.061Z,304.50
2017-11-16T04:51:37.525Z,275.50
2017-11-16T04:54:05.789Z,260.10
2017-11-16T04:56:33.254Z,250.20
2017-11-16T04:59:00.822Z,251.80
2017-11-16T05:01:29.095Z,227.10
2017-11-16T05:03:57.344Z,247.00
2017-11-16T05:06:24.920Z,238.53
2017-11-16T05:08:54.020Z,252.67
2017-11-16T05:11:21.524Z,276.23
2017-11-16T05:13:48.985Z,248.87
2017-11-16T05:16:16.601Z,215.77
2017-11-16T05:18:44.861Z,293.67
2017-11-16T05:21:12.331Z,266.40
2017-11-16T05:23:40.598Z,259.70
2017-11-16T05:26:08.061Z,205.87
2017-11-16T05:28:35.560Z,222.37
2017-11-16T05:31:03.086Z,269.10
2017-11-16T05:33:30.719Z,234.57
2017-11-16T05:35:58.311Z,250.33
2017-11-16T05:38:26.556Z,223.37
2017-11-16T05:40:54.044Z,206.67
2017-11-16T05:43:22.297Z,186.77
2017-11-16T05:45:50.005Z,238.83
2017-11-16T05:48:17.529Z,191.40
2017-11-16T05:50:45.795Z,288.00
2017-11-16T05:53:13.273Z,255.43
2017-11-16T05:55:41.628Z,216.37
2017-11-16T05:58:09.200Z,243.83
2017-11-16T06:00:37.488Z,202.60
2017-11-16T06:03:05.749Z,209.00
2017-11-16T06:05:34.043Z,192.70
2017-11-16T06:08:01.563Z,205.33
2017-11-16T06:10:29.148Z,204.57
2017-11-16T06:12:57.434Z,213.60
2017-11-16T06:15:24.941Z,204.93
2017-11-16T06:17:52.432Z,182.60
2017-11-16T06:20:20.689Z,242.47
2017-11-16T06:22:48.307Z,229.57
2017-11-16T06:25:15.780Z,179.27
2017-11-16T06:27:43.247Z,200.37
2017-11-16T06:30:10.743Z,201.73
2017-11-16T06:32:38.987Z,180.30
2017-11-16T06:35:06.453Z,196.40
2017-11-16T06:37:33.966Z,207.67
2017-11-16T06:40:01.467Z,198.07
2017-11-16T06:42:28.949Z,181.30
2017-11-16T06:44:56.445Z,220.07
2017-11-16T06:47:23.921Z,201.23
2017-11-16T06:49:51.431Z,195.77
2017-11-16T06:52:18.976Z,164.10
2017-11-16T06:54:47.271Z,158.53
2017-11-16T06:57:14.760Z,213.43
2017-11-16T06:59:42.236Z,193.07
2017-11-16T07:02:09.821Z,172.70
2017-11-16T07:04:37.352Z,137.47
2017-11-16T07:07:04.940Z,160.77
2017-11-16T07:09:33.220Z,158.70
2017-11-16T07:12:01.494Z,151.97
2017-11-16T07:14:29.752Z,164.93
2017-11-16T07:16:57.209Z,125.27
2017-11-16T07:19:24.682Z,126.27
2017-11-16T07:21:52.964Z,100.63
2017-11-16T07:24:20.459Z,123.67
2017-11-16T07:26:47.937Z,132.23
2017-11-16T07:29:15.455Z,113.50
2017-11-16T07:31:42.940Z,95.47
2017-11-16T07:34:10.442Z,112.40
2017-11-16T07:36:37.931Z,96.17
2017-11-16T07:39:05.472Z,114.50
2017-11-16T07:41:33.697Z,92.37
2017-11-16T07:44:01.178Z,81.87
2017-11-16T07:46:28.636Z,82.93
2017-11-16T07:48:57.606Z,92.60
2017-11-16T07:51:25.101Z,109.10
2017-11-16T07:53:52.604Z,97.63
2017-11-16T07:56:20.081Z,95.37
2017-11-16T07:58:47.680Z,107.33
2017-11-16T08:01:15.920Z,98.17
2017-11-16T08:03:43.405Z,118.50
2017-11-16T08:06:11.684Z,125.90
2017-11-16T08:08:39.950Z,109.20
2017-11-16T08:11:08.208Z,114.90
2017-11-16T08:13:35.801Z,88.23
2017-11-16T08:16:04.045Z,91.57
2017-11-16T08:18:31.537Z,107.37
2017-11-16T08:20:59.802Z,102.83
2017-11-16T08:23:28.044Z,100.93
2017-11-16T08:25:55.532Z,83.37
2017-11-16T08:28:23.804Z,120.23
2017-11-16T08:30:52.054Z,97.33
2017-11-16T08:33:19.519Z,97.67
2017-11-16T08:35:47.019Z,90.13
2017-11-16T08:38:14.531Z,88.13
2017-11-16T08:40:42.134Z,95.10
2017-11-16T08:43:09.665Z,91.13
2017-11-16T08:45:37.139Z,93.97
2017-11-16T08:48:05.386Z,88.63
2017-11-16T08:50:32.890Z,86.03
2017-11-16T08:53:00.391Z,85.90
2017-11-16T08:55:27.979Z,90.97
2017-11-16T08:57:56.271Z,93.83
2017-11-16T09:00:23.761Z,86.73
2017-11-16T09:02:51.260Z,93.27
2017-11-16T09:05:18.824Z,90.20
2017-11-16T09:07:47.972Z,90.10
2017-11-16T09:10:15.433Z,76.47
2017-11-16T09:12:42.958Z,89.67
2017-11-16T09:15:10.496Z,91.30
2017-11-16T09:17:38.728Z,93.53
2017-11-16T09:20:06.220Z,102.63
2017-11-16T09:22:33.688Z,119.33
2017-11-16T09:25:01.958Z,91.17
2017-11-16T09:27:30.216Z,94.77
2017-11-16T09:29:57.701Z,95.73
2017-11-16T09:32:26.517Z,97.10
2017-11-16T09:34:54.040Z,90.80
2017-11-16T09:37:22.304Z,128.87
2017-11-16T09:39:49.790Z,109.60
2017-11-16T09:42:18.072Z,133.87
2017-11-16T09:44:45.583Z,121.33
2017-11-16T09:47:13.941Z,165.60
2017-11-16T09:49:41.561Z,132.57
2017-11-16T09:52:09.816Z,124.90
2017-11-16T09:54:38.129Z,116.23
2017-11-16T09:57:05.649Z,131.67
2017-11-16T09:59:33.925Z,162.83
2017-11-16T10:02:02.182Z,151.40
2017-11-16T10:04:29.688Z,189.97
2017-11-16T10:06:57.223Z,142.93
2017-11-16T10:09:26.460Z,173.50
2017-11-16T10:11:53.983Z,142.87
2017-11-16T10:14:22.236Z,168.07
2017-11-16T10:16:49.737Z,150.60
2017-11-16T10:19:17.250Z,141.70
2017-11-16T10:21:44.721Z,139.10
2017-11-16T10:24:12.989Z,142.87
2017-11-16T10:26:40.477Z,164.90
2017-11-16T10:29:07.952Z,147.33
2017-11-16T10:31:35.453Z,139.57
2017-11-16T10:34:03.725Z,172.57
2017-11-16T10:36:31.325Z,166.03
2017-11-16T10:38:59.581Z,145.23
2017-11-16T10:41:27.836Z,136.87
2017-11-16T10:43:55.309Z,141.80
2017-11-16T10:46:22.902Z,128.90
2017-11-16T10:48:50.414Z,135.03
2017-11-16T10:51:17.906Z,171.37
2017-11-16T10:53:45.415Z,149.03
2017-11-16T10:56:12.920Z,164.70
2017-11-16T10:58:41.244Z,153.40
2017-11-16T11:01:08.708Z,139.93
2017-11-16T11:03:36.289Z,151.40
2017-11-16T11:06:03.853Z,133.50
2017-11-16T11:08:31.350Z,152.13
2017-11-16T11:10:58.854Z,151.23
2017-11-16T11:13:27.340Z,158.93
2017-11-16T11:15:54.852Z,132.27
2017-11-16T11:18:22.345Z,135.57
2017-11-16T11:20:49.840Z,155.93
2017-11-16T11:23:18.118Z,139.30
2017-11-16T11:25:46.470Z,142.67
2017-11-16T11:28:14.048Z,112.87
2017-11-16T11:30:41.568Z,146.27
2017-11-16T11:33:09.073Z,157.77
2017-11-16T11:35:36.570Z,152.20
2017-11-16T11:38:04.083Z,171.23
2017-11-16T11:40:31.581Z,146.43
2017-11-16T11:42:59.087Z,128.30
2017-11-16T11:45:27.366Z,145.30
2017-11-16T11:47:54.879Z,152.07
2017-11-16T11:50:22.389Z,155.73
2017-11-16T11:52:50.661Z,159.27
2017-11-16T11:55:18.164Z,158.53
2017-11-16T11:57:45.666Z,149.83
2017-11-16T12:00:13.912Z,181.83
2017-11-16T12:02:41.433Z,138.23
2017-11-16T12:05:08.934Z,159.93
2017-11-16T12:07:36.439Z,165.60
2017-11-16T12:10:03.931Z,167.70
2017-11-16T12:12:31.437Z,165.30
2017-11-16T12:14:58.942Z,167.60
2017-11-16T12:17:26.559Z,160.57
2017-11-16T12:19:54.197Z,173.80
2017-11-16T12:22:21.700Z,158.50
2017-11-16T12:24:49.180Z,168.27
2017-11-16T12:27:16.809Z,177.57
2017-11-16T12:29:44.332Z,162.80
2017-11-16T12:32:11.906Z,167.13
2017-11-16T12:34:40.193Z,150.03
2017-11-16T12:37:07.715Z,200.00
2017-11-16T12:39:35.383Z,197.17
2017-11-16T12:42:02.885Z,173.87
2017-11-16T12:44:30.365Z,146.63
2017-11-16T12:46:57.893Z,174.03
2017-11-16T12:49:25.453Z,158.87
2017-11-16T12:51:52.965Z,162.40
2017-11-16T12:54:20.481Z,143.00
2017-11-16T12:56:47.993Z,146.07
2017-11-16T12:59:15.515Z,153.77
2017-11-16T13:01:43.032Z,135.93
2017-11-16T13:04:10.520Z,160.97
2017-11-16T13:06:38.019Z,132.30
2017-11-16T13:09:05.632Z,132.70
2017-11-16T13:11:33.128Z,138.70
2017-11-16T13:14:02.146Z,137.43
2017-11-16T13:16:30.405Z,146.37
2017-11-16T13:18:57.905Z,147.47
2017-11-16T13:21:25.399Z,147.70
2017-11-16T13:23:52.918Z,152.67
2017-11-16T13:26:20.456Z,134.93
2017-11-16T13:28:48.738Z,133.90
2017-11-16T13:31:16.784Z,149.43
2017-11-16T13:33:44.277Z,173.83
2017-11-16T13:36:11.823Z,130.47
2017-11-16T13:38:39.345Z,137.27
2017-11-16T13:41:07.777Z,131.20
2017-11-16T13:43:35.264Z,135.73
2017-11-16T13:46:02.780Z,113.27
2017-11-16T13:48:30.337Z,133.03
2017-11-16T13:50:58.585Z,147.70
2017-11-16T13:53:27.678Z,161.87
2017-11-16T13:55:55.175Z,135.93
2017-11-16T13:58:22.706Z,144.63
2017-11-16T14:00:50.982Z,143.67
2017-11-16T14:03:19.275Z,136.07
2017-11-16T14:05:46.765Z,145.27
2017-11-16T14:08:14.272Z,164.13
2017-11-16T14:10:42.543Z,128.23
2017-11-16T14:13:10.793Z,133.23
2017-11-16T14:15:38.378Z,138.83
2017-11-16T14:18:05.853Z,153.40
2017-11-16T14:20:34.106Z,124.90
2017-11-16T14:23:01.597Z,149.23
2017-11-16T14:25:29.157Z,143.07
2017-11-16T14:27:56.700Z,136.33
2017-11-16T14:30:24.962Z,132.23
2017-11-16T14:32:52.469Z,139.17
2017-11-16T14:35:19.983Z,142.33
2017-11-16T14:37:48.275Z,129.73
2017-11-16T14:40:15.844Z,141.80
2017-11-16T14:42:43.341Z,129.17
2017-11-16T14:45:10.864Z,141.87
2017-11-16T14:47:39.145Z,141.20
2017-11-16T14:50:06.639Z,161.10
2017-11-16T14:52:34.163Z,139.17
2017-11-16T14:55:01.708Z,144.47
2017-11-16T14:57:29.210Z,132.57
2017-11-16T14:59:56.746Z,152.60
2017-11-16T15:02:24.242Z,146.23
2017-11-16T15:04:51.750Z,126.80
2017-11-16T15:07:19.275Z,156.33
2017-11-16T15:09:47.535Z,130.50
2017-11-16T15:12:15.104Z,131.27
2017-11-16T15:14:43.504Z,149.10
2017-11-16T15:17:11.011Z,144.37
2017-11-16T15:19:38.500Z,142.37
2017-11-16T15:22:07.227Z,157.50
2017-11-16T15:24:34.759Z,125.77
2017-11-16T15:27:02.256Z,121.63
2017-11-16T15:29:29.774Z,122.97
2017-11-16T15:31:58.031Z,127.80
2017-11-16T15:34:26.323Z,109.93
2017-11-16T15:36:53.853Z,106.00
2017-11-16T15:39:21.352Z,115.33
2017-11-16T15:41:48.857Z,109.67
2017-11-16T15:44:16.369Z,112.10
2017-11-16T15:46:43.872Z,120.20
2017-11-16T15:49:11.367Z,127.00
2017-11-16T15:51:39.663Z,110.53
2017-11-16T15:54:07.937Z,129.67
2017-11-16T15:56:35.443Z,118.07
2017-11-16T15:59:03.054Z,129.03
2017-11-16T16:01:30.563Z,106.07
2017-11-16T16:03:58.148Z,118.40
2017-11-16T16:06:27.385Z,110.80
2017-11-16T16:08:54.896Z,108.83
2017-11-16T16:11:23.154Z,108.30
2017-11-16T16:13:50.752Z,131.10
2017-11-16T16:16:18.247Z,121.13
2017-11-16T16:18:45.759Z,90.33
2017-11-16T16:21:14.034Z,94.97
2017-11-16T16:23:42.296Z,104.40
2017-11-16T16:26:10.582Z,98.50
2017-11-16T16:28:38.868Z,96.70
2017-11-16T16:31:06.361Z,90.03
2017-11-16T16:33:33.854Z,87.50
2017-11-16T16:36:01.488Z,77.53
2017-11-16T16:38:29.005Z,70.93
2017-11-16T16:40:57.295Z,71.30
2017-11-16T16:43:24.799Z,68.07
2017-11-16T16:45:53.809Z,66.47
2017-11-16T16:48:22.109Z,75.57
2017-11-16T16:50:49.628Z,75.47
2017-11-16T16:53:17.112Z,68.87
2017-11-16T16:55:45.387Z,77.63
2017-11-16T16:58:14.001Z,72.90
2017-11-16T17:00:41.520Z,89.97
2017-11-16T17:03:09.795Z,77.40
2017-11-16T17:05:38.078Z,72.90
2017-11-16T17:08:06.349Z,63.67
2017-11-16T17:10:34.622Z,87.33
2017-11-16T17:13:02.904Z,63.20
2017-11-16T17:15:31.162Z,65.30
2017-11-16T17:17:58.681Z,60.50
2017-11-16T17:20:26.199Z,68.33
2017-11-16T17:22:54.478Z,57.60
2017-11-16T17:25:22.737Z,64.87
2017-11-16T17:27:50.321Z,57.23
2017-11-16T17:30:18.703Z,46.03
2017-11-16T17:32:46.245Z,39.93
2017-11-16T17:35:13.753Z,61.57
2017-11-16T17:37:41.271Z,48.00
2017-11-16T17:40:08.761Z,45.90
2017-11-16T17:42:36.251Z,49.70
2017-11-16T17:45:03.729Z,48.03
2017-11-16T17:47:31.997Z,41.83
2017-11-16T17:50:00.243Z,57.63
2017-11-16T17:52:27.821Z,43.80
2017-11-16T17:54:55.447Z,43.23
2017-11-16T17:57:22.968Z,48.10
2017-11-16T17:59:50.468Z,51.80
2017-11-16T18:02:17.970Z,49.73
2017-11-16T18:04:45.529Z,46.20
2017-11-16T18:07:13.846Z,45.50
2017-11-16T18:09:41.343Z,32.60
2017-11-16T18:12:08.854Z,38.67
2017-11-16T18:14:36.358Z,34.40
2017-11-16T18:17:04.652Z,36.93
2017-11-16T18:19:32.928Z,31.77
2017-11-16T18:22:01.242Z,39.33
2017-11-16T18:24:30.035Z,45.53
2017-11-16T18:26:57.578Z,44.43
2017-11-16T18:29:25.112Z,35.60
2017-11-16T18:31:52.636Z,46.07
2017-11-16T18:34:20.653Z,30.30
2017-11-16T18:36:48.206Z,36.53
2017-11-16T18:39:16.488Z,41.10
2017-11-16T18:41:43.998Z,29.23
2017-11-16T18:44:11.513Z,30.43
2017-11-16T18:46:43.628Z,34.17
2017-11-16T18:49:11.180Z,30.67
2017-11-16T18:51:38.835Z,35.60
2017-11-16T18:54:06.355Z,32.40
2017-11-16T18:56:33.841Z,38.87
2017-11-16T18:59:02.935Z,32.90
2017-11-16T19:01:31.382Z,31.90
2017-11-16T19:03:58.902Z,40.43
2017-11-16T19:06:26.790Z,34.77
2017-11-16T19:08:55.115Z,34.63
2017-11-16T19:11:22.738Z,26.60
2017-11-16T19:13:50.996Z,26.70
2017-11-16T19:16:19.317Z,29.43
2017-11-16T19:18:46.837Z,29.03
2017-11-16T19:21:15.112Z,30.30
2017-11-16T19:23:43.405Z,23.10
2017-11-16T19:26:10.908Z,32.40
2017-11-16T19:28:38.405Z,27.57
2017-11-16T19:31:07.364Z,30.20
2017-11-16T19:33:34.857Z,22.87
2017-11-16T19:36:03.202Z,28.77
2017-11-16T19:38:31.513Z,28.33
2017-11-16T19:40:59.874Z,23.17
2017-11-16T19:43:27.625Z,26.83
2017-11-16T19:45:55.104Z,23.23
2017-11-16T19:48:23.370Z,23.27
2017-11-16T19:50:50.852Z,17.13
2017-11-16T19:53:18.352Z,19.30
2017-11-16T19:55:46.073Z,17.47
2017-11-16T19:58:13.613Z,17.07
2017-11-16T20:00:41.871Z,15.00
2017-11-16T20:03:09.444Z,14.80
2017-11-16T20:05:37.704Z,14.07
2017-11-16T20:08:05.334Z,20.73
2017-11-16T20:10:32.836Z,22.10
2017-11-16T20:13:02.880Z,11.03
2017-11-16T20:15:30.365Z,12.83
2017-11-16T20:17:57.836Z,14.43
2017-11-16T20:20:25.708Z,15.83
2017-11-16T20:22:53.302Z,10.37
2017-11-16T20:25:22.244Z,15.73
2017-11-16T20:27:49.713Z,18.07
2017-11-16T20:30:17.190Z,11.40
2017-11-16T20:32:45.869Z,16.67
2017-11-16T20:35:13.750Z,17.20
2017-11-16T20:37:45.069Z,16.20
2017-11-16T20:40:18.337Z,15.93
2017-11-16T20:43:05.748Z,16.63
2017-11-16T20:45:38.848Z,16.93
2017-11-16T20:48:20.175Z,13.40
2017-11-16T20:51:03.482Z,12.00
2017-11-16T20:53:31.781Z,15.93
2017-11-16T20:55:59.296Z,15.90
2017-11-16T20:58:26.769Z,17.97
2017-11-16T21:00:54.224Z,13.37
2017-11-16T21:03:21.700Z,14.57
2017-11-16T21:05:49.241Z,18.50
2017-11-16T21:08:16.731Z,16.33
2017-11-16T21:10:44.199Z,27.40
2017-11-16T21:13:12.148Z,16.37
2017-11-16T21:15:39.603Z,18.10
2017-11-16T21:18:07.072Z,20.70
2017-11-16T21:20:35.313Z,14.63
2017-11-16T21:23:02.819Z,15.50
2017-11-16T21:25:31.076Z,21.23
2017-11-16T21:27:58.528Z,15.30
2017-11-16T21:30:26.777Z,17.00
2017-11-16T21:32:54.281Z,16.33
2017-11-16T21:35:22.530Z,18.60
2017-11-16T21:37:49.985Z,17.33
2017-11-16T21:40:17.461Z,16.20
2017-11-16T21:42:45.693Z,16.77
2017-11-16T21:45:13.165Z,14.77
2017-11-16T21:47:40.653Z,23.27
2017-11-16T21:50:08.926Z,15.77
2017-11-16T21:52:37.394Z,15.40
2017-11-16T21:55:04.901Z,16.30
2017-11-16T21:57:32.382Z,28.47
2017-11-16T21:59:59.836Z,34.90
2017-11-16T22:02:27.320Z,18.77
2017-11-16T22:04:54.778Z,17.17
2017-11-16T22:07:22.232Z,12.10
2017-11-16T22:09:49.805Z,20.83
2017-11-16T22:12:18.028Z,17.53
2017-11-16T22:14:45.518Z,16.40
2017-11-16T22:17:13.024Z,18.37
2017-11-16T22:19:40.569Z,26.33
2017-11-16T22:22:08.048Z,21.07
2017-11-16T22:24:35.553Z,17.50
2017-11-16T22:27:03.044Z,16.87
2017-11-16T22:29:30.581Z,22.83
2017-11-16T22:31:59.699Z,24.50
2017-11-16T22:34:27.237Z,15.50
2017-11-16T22:36:55.533Z,26.60
2017-11-16T22:39:23.042Z,17.80
2017-11-16T22:41:50.530Z,17.00
2017-11-16T22:44:19.633Z,27.23
2017-11-16T22:46:48.000Z,29.27
2017-11-16T22:49:16.415Z,14.60
2017-11-16T22:51:43.877Z,15.67
2017-11-16T22:54:11.344Z,22.67
2017-11-16T22:56:38.820Z,26.57
2017-11-16T22:59:06.296Z,18.20
2017-11-16T23:01:33.769Z,17.83
2017-11-16T23:04:02.051Z,21.87
2017-11-16T23:06:29.596Z,10.77
2017-11-16T23:08:57.882Z,26.30
2017-11-16T23:11:26.147Z,25.33
2017-11-16T23:13:54.674Z,19.60
2017-11-16T23:16:22.149Z,13.73
2017-11-16T23:18:49.612Z,19.70
2017-11-16T23:21:17.092Z,15.13
2017-11-16T23:23:44.648Z,17.17
2017-11-16T23:26:12.205Z,19.13
2017-11-16T23:28:39.772Z,18.20
2017-11-16T23:31:07.252Z,29.03
2017-11-16T23:33:34.715Z,17.17
2017-11-16T23:36:02.199Z,20.90
2017-11-16T23:38:29.672Z,18.40
2017-11-16T23:40:57.154Z,20.20
2017-11-16T23:43:24.617Z,19.73
2017-11-16T23:45:52.893Z,26.63
2017-11-16T23:48:21.144Z,16.60
2017-11-16T23:50:48.623Z,12.53
2017-11-16T23:53:16.882Z,14.93
2017-11-16T23:55:44.364Z,24.83
2017-11-16T23:58:12.612Z,17.77
